sensor_id;sensor_type;location;lat;lon;timestamp;P1;durP1;ratioP1;P2;durP2;ratioP2
32505;SDS011;18955;51.224;8.482;2022-12-24T00:00:54;0.20;;;0.20;;
32505;SDS011;18955;51.224;8.482;2022-12-24T00:03:21;0.08;;;0.08;;
32505;SDS011;18955;51.224;8.482;2022-12-24T00:05:48;0.57;;;0.38;;
32505;SDS011;18955;51.224;8.482;2022-12-24T00:08:14;0.00;;;0.00;;
32505;SDS011;18955;51.224;8.482;2022-12-24T00:10:40;0.10;;;0.10;;
32505;SDS011;18955;51.224;8.482;2022-12-24T00:13:07;0.10;;;0.10;;
32505;SDS011;18955;51.224;8.482;2022-12-24T00:15:33;0.10;;;0.10;;
32505;SDS011;18955;51.224;8.482;2022-12-24T00:17:59;0.15;;;0.15;;
32505;SDS011;18955;51.224;8.482;2022-12-24T00:20:25;0.05;;;0.05;;
32505;SDS011;18955;51.224;8.482;2022-12-24T00:22:51;0.10;;;0.10;;
32505;SDS011;18955;51.224;8.482;2022-12-24T00:25:18;0.10;;;0.10;;
32505;SDS011;18955;51.224;8.482;2022-12-24T00:27:44;0.10;;;0.10;;
32505;SDS011;18955;51.224;8.482;2022-12-24T00:30:10;0.17;;;0.17;;
32505;SDS011;18955;51.224;8.482;2022-12-24T00:32:36;0.08;;;0.08;;
32505;SDS011;18955;51.224;8.482;2022-12-24T00:35:03;0.00;;;0.00;;
32505;SDS011;18955;51.224;8.482;2022-12-24T00:37:29;0.10;;;0.10;;
32505;SDS011;18955;51.224;8.482;2022-12-24T00:39:56;0.00;;;0.00;;
32505;SDS011;18955;51.224;8.482;2022-12-24T00:42:22;0.10;;;0.10;;
32505;SDS011;18955;51.224;8.482;2022-12-24T00:44:48;0.10;;;0.10;;
32505;SDS011;18955;51.224;8.482;2022-12-24T00:47:14;0.00;;;0.00;;
32505;SDS011;18955;51.224;8.482;2022-12-24T00:49:40;0.43;;;0.30;;
32505;SDS011;18955;51.224;8.482;2022-12-24T00:52:07;0.10;;;0.10;;
32505;SDS011;18955;51.224;8.482;2022-12-24T00:54:33;0.10;;;0.10;;
32505;SDS011;18955;51.224;8.482;2022-12-24T00:56:59;0.20;;;0.20;;
32505;SDS011;18955;51.224;8.482;2022-12-24T00:59:25;0.10;;;0.10;;
32505;SDS011;18955;51.224;8.482;2022-12-24T01:01:51;0.10;;;0.10;;
32505;SDS011;18955;51.224;8.482;2022-12-24T01:04:17;0.00;;;0.00;;
32505;SDS011;18955;51.224;8.482;2022-12-24T01:07:02;0.10;;;0.10;;
32505;SDS011;18955;51.224;8.482;2022-12-24T01:09:29;0.05;;;0.05;;
32505;SDS011;18955;51.224;8.482;2022-12-24T01:11:56;0.00;;;0.00;;
32505;SDS011;18955;51.224;8.482;2022-12-24T01:14:22;0.10;;;0.10;;
32505;SDS011;18955;51.224;8.482;2022-12-24T01:16:48;0.03;;;0.03;;
32505;SDS011;18955;51.224;8.482;2022-12-24T01:19:14;0.10;;;0.10;;
32505;SDS011;18955;51.224;8.482;2022-12-24T01:21:41;1.20;;;0.70;;
32505;SDS011;18955;51.224;8.482;2022-12-24T01:24:09;5.82;;;1.52;;
32505;SDS011;18955;51.224;8.482;2022-12-24T01:26:40;0.10;;;0.10;;
32505;SDS011;18955;51.224;8.482;2022-12-24T01:29:06;0.17;;;0.17;;
32505;SDS011;18955;51.224;8.482;2022-12-24T01:31:33;0.00;;;0.00;;
32505;SDS011;18955;51.224;8.482;2022-12-24T01:33:59;0.10;;;0.10;;
32505;SDS011;18955;51.224;8.482;2022-12-24T01:36:25;0.10;;;0.10;;
32505;SDS011;18955;51.224;8.482;2022-12-24T01:38:51;0.17;;;0.17;;
32505;SDS011;18955;51.224;8.482;2022-12-24T01:41:19;0.45;;;0.45;;
32505;SDS011;18955;51.224;8.482;2022-12-24T01:46:49;0.80;;;0.80;;
32505;SDS011;18955;51.224;8.482;2022-12-24T01:49:19;0.20;;;0.20;;
32505;SDS011;18955;51.224;8.482;2022-12-24T01:51:55;0.20;;;0.20;;
32505;SDS011;18955;51.224;8.482;2022-12-24T01:54:28;0.10;;;0.10;;
32505;SDS011;18955;51.224;8.482;2022-12-24T01:57:16;0.08;;;0.08;;
32505;SDS011;18955;51.224;8.482;2022-12-24T01:59:53;0.10;;;0.10;;
32505;SDS011;18955;51.224;8.482;2022-12-24T02:02:23;0.10;;;0.10;;
32505;SDS011;18955;51.224;8.482;2022-12-24T02:04:58;0.20;;;0.20;;
32505;SDS011;18955;51.224;8.482;2022-12-24T02:07:30;0.00;;;0.00;;
32505;SDS011;18955;51.224;8.482;2022-12-24T02:09:56;0.10;;;0.10;;
32505;SDS011;18955;51.224;8.482;2022-12-24T02:12:25;0.10;;;0.10;;
32505;SDS011;18955;51.224;8.482;2022-12-24T02:14:53;0.00;;;0.00;;
32505;SDS011;18955;51.224;8.482;2022-12-24T02:31:39;0.00;;;0.00;;
32505;SDS011;18955;51.224;8.482;2022-12-24T02:37:02;0.10;;;0.10;;
32505;SDS011;18955;51.224;8.482;2022-12-24T02:39:46;0.13;;;0.13;;
32505;SDS011;18955;51.224;8.482;2022-12-24T02:42:21;0.10;;;0.10;;
32505;SDS011;18955;51.224;8.482;2022-12-24T02:44:55;0.25;;;0.25;;
32505;SDS011;18955;51.224;8.482;2022-12-24T02:47:26;0.10;;;0.10;;
32505;SDS011;18955;51.224;8.482;2022-12-24T02:49:54;0.00;;;0.00;;
32505;SDS011;18955;51.224;8.482;2022-12-24T02:55:06;0.13;;;0.13;;
32505;SDS011;18955;51.224;8.482;2022-12-24T03:00:12;1.20;;;0.45;;
32505;SDS011;18955;51.224;8.482;2022-12-24T03:05:50;0.03;;;0.03;;
32505;SDS011;18955;51.224;8.482;2022-12-24T03:11:41;0.10;;;0.10;;
32505;SDS011;18955;51.224;8.482;2022-12-24T03:14:13;0.10;;;0.10;;
32505;SDS011;18955;51.224;8.482;2022-12-24T03:16:40;0.10;;;0.10;;
32505;SDS011;18955;51.224;8.482;2022-12-24T03:19:07;16.70;;;2.90;;
32505;SDS011;18955;51.224;8.482;2022-12-24T03:21:34;16.45;;;3.58;;
32505;SDS011;18955;51.224;8.482;2022-12-24T03:24:04;27.23;;;3.63;;
32505;SDS011;18955;51.224;8.482;2022-12-24T03:26:31;20.67;;;3.88;;
32505;SDS011;18955;51.224;8.482;2022-12-24T03:28:58;31.20;;;4.05;;
32505;SDS011;18955;51.224;8.482;2022-12-24T03:31:25;14.23;;;3.53;;
32505;SDS011;18955;51.224;8.482;2022-12-24T03:33:51;16.25;;;3.80;;
32505;SDS011;18955;51.224;8.482;2022-12-24T03:36:17;25.02;;;3.90;;
32505;SDS011;18955;51.224;8.482;2022-12-24T03:38:43;19.85;;;3.85;;
32505;SDS011;18955;51.224;8.482;2022-12-24T03:41:10;17.63;;;2.47;;
32505;SDS011;18955;51.224;8.482;2022-12-24T03:43:36;25.15;;;3.60;;
32505;SDS011;18955;51.224;8.482;2022-12-24T03:46:04;25.63;;;3.88;;
32505;SDS011;18955;51.224;8.482;2022-12-24T03:48:32;24.85;;;4.68;;
32505;SDS011;18955;51.224;8.482;2022-12-24T03:51:00;25.77;;;4.50;;
32505;SDS011;18955;51.224;8.482;2022-12-24T03:53:27;24.38;;;3.95;;
32505;SDS011;18955;51.224;8.482;2022-12-24T03:55:53;15.88;;;2.65;;
32505;SDS011;18955;51.224;8.482;2022-12-24T03:58:19;20.85;;;3.60;;
32505;SDS011;18955;51.224;8.482;2022-12-24T04:00:46;25.02;;;3.85;;
32505;SDS011;18955;51.224;8.482;2022-12-24T04:03:12;30.55;;;4.65;;
32505;SDS011;18955;51.224;8.482;2022-12-24T04:05:38;22.70;;;3.63;;
32505;SDS011;18955;51.224;8.482;2022-12-24T04:08:04;15.82;;;2.45;;
32505;SDS011;18955;51.224;8.482;2022-12-24T04:10:30;37.47;;;4.40;;
32505;SDS011;18955;51.224;8.482;2022-12-24T04:12:58;21.58;;;4.03;;
32505;SDS011;18955;51.224;8.482;2022-12-24T04:15:24;22.88;;;3.80;;
32505;SDS011;18955;51.224;8.482;2022-12-24T04:17:50;25.77;;;4.68;;
32505;SDS011;18955;51.224;8.482;2022-12-24T04:20:16;23.45;;;3.53;;
32505;SDS011;18955;51.224;8.482;2022-12-24T04:22:43;21.80;;;3.50;;
32505;SDS011;18955;51.224;8.482;2022-12-24T04:25:09;28.70;;;4.32;;
32505;SDS011;18955;51.224;8.482;2022-12-24T04:27:35;34.63;;;4.03;;
32505;SDS011;18955;51.224;8.482;2022-12-24T04:30:01;21.52;;;3.35;;
32505;SDS011;18955;51.224;8.482;2022-12-24T04:32:28;28.13;;;4.18;;
32505;SDS011;18955;51.224;8.482;2022-12-24T04:34:54;20.17;;;3.72;;
32505;SDS011;18955;51.224;8.482;2022-12-24T04:37:20;24.13;;;4.07;;
32505;SDS011;18955;51.224;8.482;2022-12-24T04:39:46;29.27;;;4.50;;
32505;SDS011;18955;51.224;8.482;2022-12-24T04:42:13;23.50;;;4.50;;
32505;SDS011;18955;51.224;8.482;2022-12-24T04:44:39;26.02;;;5.38;;
32505;SDS011;18955;51.224;8.482;2022-12-24T04:47:05;21.58;;;4.00;;
32505;SDS011;18955;51.224;8.482;2022-12-24T04:49:31;20.85;;;2.88;;
32505;SDS011;18955;51.224;8.482;2022-12-24T04:51:57;19.85;;;2.83;;
32505;SDS011;18955;51.224;8.482;2022-12-24T04:54:23;24.75;;;3.78;;
32505;SDS011;18955;51.224;8.482;2022-12-24T04:56:50;24.33;;;3.90;;
32505;SDS011;18955;51.224;8.482;2022-12-24T04:59:16;13.68;;;2.08;;
32505;SDS011;18955;51.224;8.482;2022-12-24T05:01:42;17.67;;;3.00;;
32505;SDS011;18955;51.224;8.482;2022-12-24T05:04:08;22.38;;;3.60;;
32505;SDS011;18955;51.224;8.482;2022-12-24T05:06:35;26.45;;;3.63;;
32505;SDS011;18955;51.224;8.482;2022-12-24T05:09:02;15.15;;;2.85;;
32505;SDS011;18955;51.224;8.482;2022-12-24T05:11:29;16.08;;;2.92;;
32505;SDS011;18955;51.224;8.482;2022-12-24T05:13:55;12.50;;;2.83;;
32505;SDS011;18955;51.224;8.482;2022-12-24T05:16:22;16.48;;;3.03;;
32505;SDS011;18955;51.224;8.482;2022-12-24T05:18:49;14.32;;;2.53;;
32505;SDS011;18955;51.224;8.482;2022-12-24T05:21:17;18.65;;;3.55;;
32505;SDS011;18955;51.224;8.482;2022-12-24T05:23:46;13.32;;;2.47;;
32505;SDS011;18955;51.224;8.482;2022-12-24T05:26:33;16.48;;;2.53;;
32505;SDS011;18955;51.224;8.482;2022-12-24T05:28:59;12.13;;;1.98;;
32505;SDS011;18955;51.224;8.482;2022-12-24T05:31:27;12.82;;;3.13;;
32505;SDS011;18955;51.224;8.482;2022-12-24T05:33:55;16.20;;;2.63;;
32505;SDS011;18955;51.224;8.482;2022-12-24T05:36:21;13.18;;;2.40;;
32505;SDS011;18955;51.224;8.482;2022-12-24T05:38:49;16.60;;;3.20;;
32505;SDS011;18955;51.224;8.482;2022-12-24T05:43:42;19.30;;;3.22;;
32505;SDS011;18955;51.224;8.482;2022-12-24T05:46:09;10.68;;;2.80;;
32505;SDS011;18955;51.224;8.482;2022-12-24T05:48:37;15.73;;;3.35;;
32505;SDS011;18955;51.224;8.482;2022-12-24T05:51:06;20.00;;;2.70;;
32505;SDS011;18955;51.224;8.482;2022-12-24T05:53:34;8.57;;;2.35;;
32505;SDS011;18955;51.224;8.482;2022-12-24T05:58:28;12.80;;;3.00;;
32505;SDS011;18955;51.224;8.482;2022-12-24T06:00:55;7.63;;;2.90;;
32505;SDS011;18955;51.224;8.482;2022-12-24T06:03:21;17.65;;;3.17;;
32505;SDS011;18955;51.224;8.482;2022-12-24T06:05:47;12.40;;;2.78;;
32505;SDS011;18955;51.224;8.482;2022-12-24T06:08:13;12.52;;;2.45;;
32505;SDS011;18955;51.224;8.482;2022-12-24T06:10:39;9.05;;;2.55;;
32505;SDS011;18955;51.224;8.482;2022-12-24T06:13:06;12.23;;;2.88;;
32505;SDS011;18955;51.224;8.482;2022-12-24T06:15:32;14.27;;;3.17;;
32505;SDS011;18955;51.224;8.482;2022-12-24T06:18:00;12.20;;;2.20;;
32505;SDS011;18955;51.224;8.482;2022-12-24T06:20:26;5.25;;;1.98;;
32505;SDS011;18955;51.224;8.482;2022-12-24T06:22:52;9.43;;;2.25;;
32505;SDS011;18955;51.224;8.482;2022-12-24T06:25:19;7.00;;;2.00;;
32505;SDS011;18955;51.224;8.482;2022-12-24T06:27:45;1.90;;;0.90;;
32505;SDS011;18955;51.224;8.482;2022-12-24T06:30:11;4.82;;;1.45;;
32505;SDS011;18955;51.224;8.482;2022-12-24T06:32:38;7.28;;;1.75;;
32505;SDS011;18955;51.224;8.482;2022-12-24T06:35:04;6.13;;;1.65;;
32505;SDS011;18955;51.224;8.482;2022-12-24T06:37:30;6.40;;;1.80;;
32505;SDS011;18955;51.224;8.482;2022-12-24T06:39:56;10.02;;;1.88;;
32505;SDS011;18955;51.224;8.482;2022-12-24T06:42:22;4.82;;;1.60;;
32505;SDS011;18955;51.224;8.482;2022-12-24T06:44:49;3.38;;;1.08;;
32505;SDS011;18955;51.224;8.482;2022-12-24T06:47:15;5.53;;;1.42;;
32505;SDS011;18955;51.224;8.482;2022-12-24T06:49:41;12.95;;;2.50;;
32505;SDS011;18955;51.224;8.482;2022-12-24T06:52:07;7.47;;;1.75;;
32505;SDS011;18955;51.224;8.482;2022-12-24T06:54:33;3.97;;;1.42;;
32505;SDS011;18955;51.224;8.482;2022-12-24T06:57:00;6.82;;;1.60;;
32505;SDS011;18955;51.224;8.482;2022-12-24T06:59:26;8.75;;;2.15;;
32505;SDS011;18955;51.224;8.482;2022-12-24T07:01:52;10.63;;;3.13;;
32505;SDS011;18955;51.224;8.482;2022-12-24T07:04:18;11.73;;;2.85;;
32505;SDS011;18955;51.224;8.482;2022-12-24T07:06:44;7.80;;;2.20;;
32505;SDS011;18955;51.224;8.482;2022-12-24T07:09:11;15.25;;;2.50;;
32505;SDS011;18955;51.224;8.482;2022-12-24T07:11:39;11.35;;;2.92;;
32505;SDS011;18955;51.224;8.482;2022-12-24T07:14:05;10.85;;;3.30;;
32505;SDS011;18955;51.224;8.482;2022-12-24T07:16:31;10.10;;;2.95;;
32505;SDS011;18955;51.224;8.482;2022-12-24T07:18:57;11.73;;;2.75;;
32505;SDS011;18955;51.224;8.482;2022-12-24T07:21:24;6.47;;;2.28;;
32505;SDS011;18955;51.224;8.482;2022-12-24T07:23:50;18.95;;;4.10;;
32505;SDS011;18955;51.224;8.482;2022-12-24T07:26:16;12.07;;;3.95;;
32505;SDS011;18955;51.224;8.482;2022-12-24T07:28:42;20.65;;;4.35;;
32505;SDS011;18955;51.224;8.482;2022-12-24T07:31:08;9.43;;;3.88;;
32505;SDS011;18955;51.224;8.482;2022-12-24T07:33:35;18.50;;;4.80;;
32505;SDS011;18955;51.224;8.482;2022-12-24T07:36:02;13.88;;;4.53;;
32505;SDS011;18955;51.224;8.482;2022-12-24T07:38:30;15.30;;;5.10;;
32505;SDS011;18955;51.224;8.482;2022-12-24T07:40:57;21.92;;;7.32;;
32505;SDS011;18955;51.224;8.482;2022-12-24T07:43:24;15.75;;;5.10;;
32505;SDS011;18955;51.224;8.482;2022-12-24T07:45:53;15.48;;;4.65;;
32505;SDS011;18955;51.224;8.482;2022-12-24T07:48:23;13.68;;;5.55;;
32505;SDS011;18955;51.224;8.482;2022-12-24T07:50:50;28.08;;;6.10;;
32505;SDS011;18955;51.224;8.482;2022-12-24T07:53:17;18.33;;;5.88;;
32505;SDS011;18955;51.224;8.482;2022-12-24T07:55:43;18.60;;;5.57;;
32505;SDS011;18955;51.224;8.482;2022-12-24T07:58:09;13.30;;;4.72;;
32505;SDS011;18955;51.224;8.482;2022-12-24T08:00:36;16.73;;;5.38;;
32505;SDS011;18955;51.224;8.482;2022-12-24T08:03:02;14.43;;;3.72;;
32505;SDS011;18955;51.224;8.482;2022-12-24T08:05:32;18.27;;;5.18;;
32505;SDS011;18955;51.224;8.482;2022-12-24T08:08:01;23.42;;;6.03;;
32505;SDS011;18955;51.224;8.482;2022-12-24T08:10:28;24.45;;;6.35;;
32505;SDS011;18955;51.224;8.482;2022-12-24T08:12:54;15.98;;;4.72;;
32505;SDS011;18955;51.224;8.482;2022-12-24T08:15:20;19.73;;;6.43;;
32505;SDS011;18955;51.224;8.482;2022-12-24T08:17:46;9.57;;;3.78;;
32505;SDS011;18955;51.224;8.482;2022-12-24T08:20:12;21.92;;;5.82;;
32505;SDS011;18955;51.224;8.482;2022-12-24T08:22:40;19.02;;;7.03;;
32505;SDS011;18955;51.224;8.482;2022-12-24T08:25:06;13.48;;;4.32;;
32505;SDS011;18955;51.224;8.482;2022-12-24T08:27:33;12.02;;;4.00;;
32505;SDS011;18955;51.224;8.482;2022-12-24T08:29:59;13.70;;;3.90;;
32505;SDS011;18955;51.224;8.482;2022-12-24T08:32:26;10.05;;;3.67;;
32505;SDS011;18955;51.224;8.482;2022-12-24T08:34:52;16.60;;;4.30;;
32505;SDS011;18955;51.224;8.482;2022-12-24T08:37:18;27.30;;;5.32;;
32505;SDS011;18955;51.224;8.482;2022-12-24T08:39:44;15.38;;;4.05;;
32505;SDS011;18955;51.224;8.482;2022-12-24T08:42:10;23.35;;;6.30;;
32505;SDS011;18955;51.224;8.482;2022-12-24T08:44:37;18.23;;;5.43;;
32505;SDS011;18955;51.224;8.482;2022-12-24T08:47:03;25.00;;;5.78;;
32505;SDS011;18955;51.224;8.482;2022-12-24T08:49:29;23.48;;;6.05;;
32505;SDS011;18955;51.224;8.482;2022-12-24T08:51:56;25.45;;;6.53;;
32505;SDS011;18955;51.224;8.482;2022-12-24T08:54:23;22.42;;;6.05;;
32505;SDS011;18955;51.224;8.482;2022-12-24T08:56:50;27.50;;;7.72;;
32505;SDS011;18955;51.224;8.482;2022-12-24T08:59:16;27.30;;;7.50;;
32505;SDS011;18955;51.224;8.482;2022-12-24T09:01:42;18.50;;;5.18;;
32505;SDS011;18955;51.224;8.482;2022-12-24T09:04:09;20.80;;;5.45;;
32505;SDS011;18955;51.224;8.482;2022-12-24T09:06:35;11.85;;;3.88;;
32505;SDS011;18955;51.224;8.482;2022-12-24T09:09:02;28.48;;;6.05;;
32505;SDS011;18955;51.224;8.482;2022-12-24T09:11:29;25.73;;;7.18;;
32505;SDS011;18955;51.224;8.482;2022-12-24T09:13:55;29.42;;;7.95;;
32505;SDS011;18955;51.224;8.482;2022-12-24T09:16:21;22.10;;;5.45;;
32505;SDS011;18955;51.224;8.482;2022-12-24T09:21:14;25.08;;;6.10;;
32505;SDS011;18955;51.224;8.482;2022-12-24T09:23:42;25.85;;;7.47;;
32505;SDS011;18955;51.224;8.482;2022-12-24T09:28:47;20.30;;;5.88;;
32505;SDS011;18955;51.224;8.482;2022-12-24T09:31:14;18.00;;;6.63;;
32505;SDS011;18955;51.224;8.482;2022-12-24T09:33:42;24.10;;;6.75;;
32505;SDS011;18955;51.224;8.482;2022-12-24T09:36:09;22.92;;;8.00;;
32505;SDS011;18955;51.224;8.482;2022-12-24T09:38:36;14.18;;;5.15;;
32505;SDS011;18955;51.224;8.482;2022-12-24T09:41:10;28.48;;;6.72;;
32505;SDS011;18955;51.224;8.482;2022-12-24T09:44:39;27.88;;;6.55;;
32505;SDS011;18955;51.224;8.482;2022-12-24T09:49:22;22.77;;;5.97;;
32505;SDS011;18955;51.224;8.482;2022-12-24T09:51:54;29.77;;;6.85;;
32505;SDS011;18955;51.224;8.482;2022-12-24T09:54:33;23.40;;;5.43;;
32505;SDS011;18955;51.224;8.482;2022-12-24T09:57:05;22.13;;;5.53;;
32505;SDS011;18955;51.224;8.482;2022-12-24T09:59:45;23.70;;;5.82;;
32505;SDS011;18955;51.224;8.482;2022-12-24T10:02:13;25.52;;;7.18;;
32505;SDS011;18955;51.224;8.482;2022-12-24T10:04:42;29.70;;;7.82;;
32505;SDS011;18955;51.224;8.482;2022-12-24T10:15:29;38.00;;;7.30;;
32505;SDS011;18955;51.224;8.482;2022-12-24T10:20:58;30.23;;;6.40;;
32505;SDS011;18955;51.224;8.482;2022-12-24T10:23:37;22.23;;;6.38;;
32505;SDS011;18955;51.224;8.482;2022-12-24T10:26:17;28.27;;;6.20;;
32505;SDS011;18955;51.224;8.482;2022-12-24T10:31:26;31.48;;;7.00;;
32505;SDS011;18955;51.224;8.482;2022-12-24T10:33:56;30.58;;;7.13;;
32505;SDS011;18955;51.224;8.482;2022-12-24T10:36:27;27.08;;;6.93;;
32505;SDS011;18955;51.224;8.482;2022-12-24T10:38:54;30.42;;;7.15;;
32505;SDS011;18955;51.224;8.482;2022-12-24T10:41:21;30.58;;;7.80;;
32505;SDS011;18955;51.224;8.482;2022-12-24T10:43:49;25.85;;;7.10;;
32505;SDS011;18955;51.224;8.482;2022-12-24T10:46:17;25.90;;;6.80;;
32505;SDS011;18955;51.224;8.482;2022-12-24T10:48:53;26.33;;;6.85;;
32505;SDS011;18955;51.224;8.482;2022-12-24T10:54:11;19.70;;;5.63;;
32505;SDS011;18955;51.224;8.482;2022-12-24T10:56:45;13.68;;;4.57;;
32505;SDS011;18955;51.224;8.482;2022-12-24T10:59:21;21.45;;;4.93;;
32505;SDS011;18955;51.224;8.482;2022-12-24T11:01:49;17.50;;;5.05;;
32505;SDS011;18955;51.224;8.482;2022-12-24T11:04:17;19.90;;;5.47;;
32505;SDS011;18955;51.224;8.482;2022-12-24T11:06:52;17.90;;;5.88;;
32505;SDS011;18955;51.224;8.482;2022-12-24T11:09:24;21.40;;;5.60;;
32505;SDS011;18955;51.224;8.482;2022-12-24T11:11:56;21.40;;;5.82;;
32505;SDS011;18955;51.224;8.482;2022-12-24T11:14:24;25.63;;;6.75;;
32505;SDS011;18955;51.224;8.482;2022-12-24T11:16:55;28.73;;;7.43;;
32505;SDS011;18955;51.224;8.482;2022-12-24T11:19:34;31.33;;;7.65;;
32505;SDS011;18955;51.224;8.482;2022-12-24T11:22:05;30.88;;;6.53;;
32505;SDS011;18955;51.224;8.482;2022-12-24T11:24:41;26.63;;;6.70;;
32505;SDS011;18955;51.224;8.482;2022-12-24T11:27:27;20.52;;;6.10;;
32505;SDS011;18955;51.224;8.482;2022-12-24T11:35:28;25.90;;;6.15;;
32505;SDS011;18955;51.224;8.482;2022-12-24T11:40:34;22.38;;;5.53;;
32505;SDS011;18955;51.224;8.482;2022-12-24T11:43:02;29.15;;;5.50;;
32505;SDS011;18955;51.224;8.482;2022-12-24T11:45:30;19.98;;;5.68;;
32505;SDS011;18955;51.224;8.482;2022-12-24T11:47:58;30.40;;;6.20;;
32505;SDS011;18955;51.224;8.482;2022-12-24T12:00:39;26.17;;;6.53;;
32505;SDS011;18955;51.224;8.482;2022-12-24T12:03:11;26.67;;;6.15;;
32505;SDS011;18955;51.224;8.482;2022-12-24T12:05:52;18.92;;;5.47;;
32505;SDS011;18955;51.224;8.482;2022-12-24T12:08:20;31.02;;;6.70;;
32505;SDS011;18955;51.224;8.482;2022-12-24T12:10:48;17.67;;;5.90;;
32505;SDS011;18955;51.224;8.482;2022-12-24T12:13:28;24.55;;;7.25;;
32505;SDS011;18955;51.224;8.482;2022-12-24T12:19:15;31.10;;;6.68;;
32505;SDS011;18955;51.224;8.482;2022-12-24T12:21:43;33.65;;;7.20;;
32505;SDS011;18955;51.224;8.482;2022-12-24T12:24:23;32.83;;;6.72;;
32505;SDS011;18955;51.224;8.482;2022-12-24T12:26:57;21.23;;;6.47;;
32505;SDS011;18955;51.224;8.482;2022-12-24T12:29:48;29.58;;;6.88;;
32505;SDS011;18955;51.224;8.482;2022-12-24T12:32:26;39.05;;;7.47;;
32505;SDS011;18955;51.224;8.482;2022-12-24T12:35:14;32.25;;;7.35;;
32505;SDS011;18955;51.224;8.482;2022-12-24T12:38:09;30.45;;;6.43;;
32505;SDS011;18955;51.224;8.482;2022-12-24T12:46:38;24.58;;;6.28;;
32505;SDS011;18955;51.224;8.482;2022-12-24T12:52:06;28.15;;;6.22;;
32505;SDS011;18955;51.224;8.482;2022-12-24T12:57:27;30.08;;;6.78;;
32505;SDS011;18955;51.224;8.482;2022-12-24T13:00:04;33.63;;;6.50;;
32505;SDS011;18955;51.224;8.482;2022-12-24T13:05:33;33.83;;;7.10;;
32505;SDS011;18955;51.224;8.482;2022-12-24T13:21:20;33.75;;;7.18;;
32505;SDS011;18955;51.224;8.482;2022-12-24T13:23:49;30.77;;;7.32;;
32505;SDS011;18955;51.224;8.482;2022-12-24T13:26:29;27.73;;;6.65;;
32505;SDS011;18955;51.224;8.482;2022-12-24T13:28:55;29.02;;;6.03;;
32505;SDS011;18955;51.224;8.482;2022-12-24T13:32:08;24.63;;;6.90;;
32505;SDS011;18955;51.224;8.482;2022-12-24T13:34:50;37.00;;;7.72;;
32505;SDS011;18955;51.224;8.482;2022-12-24T13:48:01;34.55;;;6.32;;
32505;SDS011;18955;51.224;8.482;2022-12-24T13:55:55;24.27;;;5.20;;
32505;SDS011;18955;51.224;8.482;2022-12-24T13:58:34;28.95;;;6.10;;
32505;SDS011;18955;51.224;8.482;2022-12-24T14:03:32;39.50;;;6.22;;
32505;SDS011;18955;51.224;8.482;2022-12-24T14:06:24;26.20;;;5.75;;
32505;SDS011;18955;51.224;8.482;2022-12-24T14:08:56;26.30;;;5.50;;
32505;SDS011;18955;51.224;8.482;2022-12-24T14:12:12;27.98;;;6.28;;
32505;SDS011;18955;51.224;8.482;2022-12-24T14:16:58;27.88;;;5.97;;
32505;SDS011;18955;51.224;8.482;2022-12-24T14:27:46;23.52;;;4.85;;
32505;SDS011;18955;51.224;8.482;2022-12-24T14:32:53;43.85;;;6.80;;
32505;SDS011;18955;51.224;8.482;2022-12-24T14:35:24;26.60;;;5.93;;
32505;SDS011;18955;51.224;8.482;2022-12-24T14:40:29;27.05;;;5.00;;
32505;SDS011;18955;51.224;8.482;2022-12-24T14:43:03;25.80;;;5.32;;
32505;SDS011;18955;51.224;8.482;2022-12-24T14:45:44;28.67;;;6.07;;
32505;SDS011;18955;51.224;8.482;2022-12-24T14:56:18;31.17;;;5.82;;
32505;SDS011;18955;51.224;8.482;2022-12-24T14:58:45;26.92;;;4.75;;
32505;SDS011;18955;51.224;8.482;2022-12-24T15:01:20;26.65;;;7.10;;
32505;SDS011;18955;51.224;8.482;2022-12-24T15:09:33;31.52;;;5.43;;
32505;SDS011;18955;51.224;8.482;2022-12-24T15:11:59;23.65;;;5.43;;
32505;SDS011;18955;51.224;8.482;2022-12-24T15:14:29;31.65;;;5.30;;
32505;SDS011;18955;51.224;8.482;2022-12-24T15:17:02;29.60;;;5.63;;
32505;SDS011;18955;51.224;8.482;2022-12-24T15:19:35;20.75;;;4.47;;
32505;SDS011;18955;51.224;8.482;2022-12-24T15:22:06;29.50;;;5.72;;
32505;SDS011;18955;51.224;8.482;2022-12-24T15:24:43;30.13;;;5.57;;
32505;SDS011;18955;51.224;8.482;2022-12-24T15:27:23;30.48;;;6.00;;
32505;SDS011;18955;51.224;8.482;2022-12-24T15:29:52;29.02;;;6.03;;
32505;SDS011;18955;51.224;8.482;2022-12-24T15:32:20;22.55;;;5.45;;
32505;SDS011;18955;51.224;8.482;2022-12-24T15:34:51;30.25;;;5.50;;
32505;SDS011;18955;51.224;8.482;2022-12-24T15:37:26;24.73;;;6.18;;
32505;SDS011;18955;51.224;8.482;2022-12-24T15:40:20;25.42;;;6.38;;
32505;SDS011;18955;51.224;8.482;2022-12-24T15:42:49;36.65;;;5.93;;
32505;SDS011;18955;51.224;8.482;2022-12-24T15:45:17;29.02;;;6.15;;
32505;SDS011;18955;51.224;8.482;2022-12-24T15:47:53;23.52;;;5.88;;
32505;SDS011;18955;51.224;8.482;2022-12-24T15:50:32;23.77;;;5.97;;
32505;SDS011;18955;51.224;8.482;2022-12-24T15:53:02;20.55;;;5.53;;
32505;SDS011;18955;51.224;8.482;2022-12-24T15:58:15;26.65;;;5.47;;
32505;SDS011;18955;51.224;8.482;2022-12-24T16:03:38;27.48;;;7.90;;
32505;SDS011;18955;51.224;8.482;2022-12-24T16:06:09;23.55;;;7.75;;
32505;SDS011;18955;51.224;8.482;2022-12-24T16:08:37;31.55;;;9.60;;
32505;SDS011;18955;51.224;8.482;2022-12-24T16:13:34;24.45;;;5.68;;
32505;SDS011;18955;51.224;8.482;2022-12-24T16:16:28;29.17;;;5.95;;
32505;SDS011;18955;51.224;8.482;2022-12-24T16:18:58;20.92;;;6.32;;
32505;SDS011;18955;51.224;8.482;2022-12-24T16:21:30;23.92;;;6.03;;
32505;SDS011;18955;51.224;8.482;2022-12-24T16:24:03;22.27;;;5.38;;
32505;SDS011;18955;51.224;8.482;2022-12-24T16:26:41;19.52;;;5.60;;
32505;SDS011;18955;51.224;8.482;2022-12-24T16:29:08;25.05;;;6.32;;
32505;SDS011;18955;51.224;8.482;2022-12-24T16:31:37;26.80;;;6.28;;
32505;SDS011;18955;51.224;8.482;2022-12-24T16:34:09;24.42;;;6.82;;
32505;SDS011;18955;51.224;8.482;2022-12-24T16:36:40;31.27;;;6.57;;
32505;SDS011;18955;51.224;8.482;2022-12-24T16:39:19;23.55;;;6.38;;
32505;SDS011;18955;51.224;8.482;2022-12-24T16:42:04;21.15;;;6.75;;
32505;SDS011;18955;51.224;8.482;2022-12-24T16:44:51;18.63;;;6.13;;
32505;SDS011;18955;51.224;8.482;2022-12-24T16:47:22;25.33;;;6.53;;
32505;SDS011;18955;51.224;8.482;2022-12-24T16:49:51;18.85;;;6.07;;
32505;SDS011;18955;51.224;8.482;2022-12-24T16:52:18;20.08;;;6.43;;
32505;SDS011;18955;51.224;8.482;2022-12-24T16:54:47;27.58;;;7.47;;
32505;SDS011;18955;51.224;8.482;2022-12-24T16:57:14;41.70;;;13.95;;
32505;SDS011;18955;51.224;8.482;2022-12-24T16:59:40;43.22;;;15.32;;
32505;SDS011;18955;51.224;8.482;2022-12-24T17:02:08;19.63;;;7.70;;
32505;SDS011;18955;51.224;8.482;2022-12-24T17:04:40;30.13;;;8.38;;
32505;SDS011;18955;51.224;8.482;2022-12-24T17:07:06;27.70;;;8.10;;
32505;SDS011;18955;51.224;8.482;2022-12-24T17:09:34;23.42;;;7.93;;
32505;SDS011;18955;51.224;8.482;2022-12-24T17:12:00;40.97;;;8.50;;
32505;SDS011;18955;51.224;8.482;2022-12-24T17:14:26;39.28;;;7.78;;
32505;SDS011;18955;51.224;8.482;2022-12-24T17:16:52;31.60;;;8.23;;
32505;SDS011;18955;51.224;8.482;2022-12-24T17:19:19;19.10;;;6.00;;
32505;SDS011;18955;51.224;8.482;2022-12-24T17:21:45;31.40;;;8.07;;
32505;SDS011;18955;51.224;8.482;2022-12-24T17:24:11;26.05;;;8.38;;
32505;SDS011;18955;51.224;8.482;2022-12-24T17:26:39;23.75;;;6.95;;
32505;SDS011;18955;51.224;8.482;2022-12-24T17:29:08;23.95;;;7.70;;
32505;SDS011;18955;51.224;8.482;2022-12-24T17:31:35;25.10;;;7.18;;
32505;SDS011;18955;51.224;8.482;2022-12-24T17:34:05;18.20;;;6.88;;
32505;SDS011;18955;51.224;8.482;2022-12-24T17:36:31;14.93;;;4.60;;
32505;SDS011;18955;51.224;8.482;2022-12-24T17:38:57;17.17;;;6.63;;